createdAt,value
2023-05-19T00:01:17.027Z,7.36
2023-05-19T00:03:52.553Z,7.29
2023-05-19T00:06:24.989Z,7.43
2023-05-19T00:08:58.178Z,7.39
2023-05-19T00:11:26.945Z,7.41
2023-05-19T00:13:58.167Z,7.31
2023-05-19T00:16:26.398Z,7.35
2023-05-19T00:18:54.285Z,7.31
2023-05-19T00:21:21.299Z,7.29
2023-05-19T00:23:47.988Z,7.56
2023-05-19T00:26:14.759Z,7.44
2023-05-19T00:28:51.111Z,7.35
2023-05-19T00:31:17.899Z,7.40
2023-05-19T00:33:44.757Z,7.50
2023-05-19T00:36:11.780Z,7.49
2023-05-19T00:38:38.612Z,7.68
2023-05-19T00:41:06.416Z,7.41
2023-05-19T00:43:36.450Z,7.53
2023-05-19T00:46:03.639Z,7.56
2023-05-19T00:48:30.409Z,7.47
2023-05-19T00:51:04.121Z,7.25
2023-05-19T00:53:32.161Z,7.31
2023-05-19T00:55:59.812Z,7.26
2023-05-19T00:58:30.777Z,7.40
2023-05-19T01:01:05.271Z,7.39
2023-05-19T01:03:35.635Z,7.36
2023-05-19T01:06:07.456Z,7.33
2023-05-19T01:08:36.256Z,7.38
2023-05-19T01:11:07.318Z,7.32
2023-05-19T01:13:35.936Z,7.57
2023-05-19T01:16:17.723Z,7.44
2023-05-19T01:18:56.709Z,7.48
2023-05-19T01:22:01.150Z,7.45
2023-05-19T01:25:02.916Z,7.54
2023-05-19T01:27:42.303Z,7.56
2023-05-19T01:30:26.771Z,7.53
2023-05-19T01:32:58.422Z,7.52
2023-05-19T01:35:26.245Z,7.59
2023-05-19T01:37:57.445Z,7.46
2023-05-19T01:40:25.700Z,7.47
2023-05-19T01:42:58.709Z,7.51
2023-05-19T01:45:27.849Z,7.35
2023-05-19T01:47:57.694Z,7.37
2023-05-19T01:50:25.121Z,7.40
2023-05-19T01:52:52.335Z,7.48
2023-05-19T01:55:19.367Z,7.55
2023-05-19T01:57:57.897Z,7.52
2023-05-19T02:01:00.189Z,7.40
2023-05-19T02:03:42.232Z,7.38
2023-05-19T02:06:27.647Z,7.40
2023-05-19T02:09:10.707Z,7.51
2023-05-19T02:11:42.036Z,7.67
2023-05-19T02:14:16.088Z,7.69
2023-05-19T02:16:46.303Z,7.71
2023-05-19T02:19:32.112Z,7.66
2023-05-19T02:21:58.918Z,7.80
2023-05-19T02:24:26.083Z,7.72
2023-05-19T02:26:54.056Z,7.75
2023-05-19T02:29:21.397Z,7.57
2023-05-19T02:31:50.583Z,7.65
2023-05-19T02:34:18.979Z,7.77
2023-05-19T02:36:45.678Z,7.84
2023-05-19T02:39:13.001Z,7.76
2023-05-19T02:41:39.722Z,7.78
2023-05-19T02:44:06.462Z,7.90
2023-05-19T02:46:35.857Z,7.88
2023-05-19T02:49:02.554Z,7.83
2023-05-19T02:51:29.297Z,8.05
2023-05-19T02:53:56.125Z,7.76
2023-05-19T02:56:22.852Z,7.85
2023-05-19T02:58:49.520Z,7.93
2023-05-19T03:01:16.599Z,7.79
2023-05-19T03:03:43.548Z,7.73
2023-05-19T03:06:10.398Z,7.81
2023-05-19T03:08:42.319Z,7.71
2023-05-19T03:11:09.319Z,7.67
2023-05-19T03:13:36.170Z,7.63
2023-05-19T03:16:03.249Z,7.63
2023-05-19T03:18:30.059Z,7.60
2023-05-19T03:20:56.831Z,7.65
2023-05-19T03:23:23.543Z,7.56
2023-05-19T03:25:50.835Z,7.63
2023-05-19T03:28:18.062Z,7.67
2023-05-19T03:30:45.059Z,7.67
2023-05-19T03:33:17.107Z,7.65
2023-05-19T03:35:46.931Z,7.71
2023-05-19T03:38:14.628Z,7.89
2023-05-19T03:40:51.124Z,7.86
2023-05-19T03:43:18.060Z,7.81
2023-05-19T03:45:49.611Z,7.85
2023-05-19T03:48:36.413Z,7.95
2023-05-19T03:51:18.170Z,8.05
2023-05-19T03:53:47.008Z,8.06
2023-05-19T03:56:14.026Z,7.96
2023-05-19T03:58:44.863Z,8.02
2023-05-19T04:01:11.827Z,8.08
2023-05-19T04:03:38.654Z,8.29
2023-05-19T04:06:05.828Z,8.14
2023-05-19T04:08:32.578Z,8.19
2023-05-19T04:10:59.265Z,8.23
2023-05-19T04:13:26.078Z,8.31
2023-05-19T04:15:53.141Z,8.26
2023-05-19T04:18:19.948Z,8.12
2023-05-19T04:20:46.675Z,8.26
2023-05-19T04:23:13.356Z,8.20
2023-05-19T04:25:40.946Z,8.22
2023-05-19T04:28:07.818Z,8.25
2023-05-19T04:30:34.752Z,8.25
2023-05-19T04:33:03.820Z,8.41
2023-05-19T04:35:31.382Z,8.41
2023-05-19T04:38:00.046Z,8.52
2023-05-19T04:40:34.257Z,8.47
2023-05-19T04:43:02.368Z,8.44
2023-05-19T04:45:30.205Z,8.50
2023-05-19T04:48:00.214Z,8.56
2023-05-19T04:50:28.652Z,8.62
2023-05-19T04:52:59.158Z,8.71
2023-05-19T04:55:27.067Z,8.76
2023-05-19T04:57:54.522Z,8.65
2023-05-19T05:00:21.989Z,8.67
2023-05-19T05:02:57.791Z,8.90
2023-05-19T05:05:26.653Z,8.93
2023-05-19T05:07:54.174Z,8.94
2023-05-19T05:10:22.901Z,9.17
2023-05-19T05:12:50.795Z,9.13
2023-05-19T05:15:18.116Z,9.01
2023-05-19T05:17:48.076Z,8.99
2023-05-19T05:20:15.468Z,9.09
2023-05-19T05:22:42.579Z,9.16
2023-05-19T05:25:10.777Z,9.32
2023-05-19T05:27:38.326Z,9.53
2023-05-19T05:30:07.391Z,9.39
2023-05-19T05:32:34.422Z,9.41
2023-05-19T05:35:03.283Z,9.49
2023-05-19T05:37:31.261Z,9.68
2023-05-19T05:39:57.967Z,9.78
2023-05-19T05:42:25.336Z,10.02
2023-05-19T05:44:53.067Z,9.96
2023-05-19T05:47:20.174Z,10.09
2023-05-19T05:49:48.735Z,9.90
2023-05-19T05:52:22.029Z,10.15
2023-05-19T05:54:49.291Z,10.13
2023-05-19T05:57:18.896Z,10.00
2023-05-19T05:59:47.145Z,10.25
2023-05-19T06:02:14.567Z,10.43
2023-05-19T06:04:41.877Z,10.39
2023-05-19T06:07:08.926Z,10.35
2023-05-19T06:09:38.107Z,10.81
2023-05-19T06:12:06.851Z,10.53
2023-05-19T06:14:38.984Z,10.86
2023-05-19T06:17:14.909Z,10.83
2023-05-19T06:19:41.885Z,11.17
2023-05-19T06:22:09.167Z,11.47
2023-05-19T06:24:37.866Z,11.38
2023-05-19T06:27:06.193Z,11.71
2023-05-19T06:29:33.033Z,11.58
2023-05-19T06:32:03.294Z,11.58
2023-05-19T06:34:30.275Z,11.77
2023-05-19T06:36:56.992Z,12.24
2023-05-19T06:39:24.898Z,12.41
2023-05-19T06:41:51.642Z,12.76
2023-05-19T06:44:44.069Z,12.66
2023-05-19T06:47:12.148Z,12.75
2023-05-19T06:49:38.988Z,13.36
2023-05-19T06:52:06.639Z,13.77
2023-05-19T06:54:33.465Z,13.54
2023-05-19T06:57:00.181Z,13.78
2023-05-19T06:59:27.030Z,13.86
2023-05-19T07:01:53.859Z,14.05
2023-05-19T07:04:20.756Z,13.97
2023-05-19T07:06:50.327Z,14.35
2023-05-19T07:09:19.076Z,14.51
2023-05-19T07:11:46.990Z,15.08
2023-05-19T07:14:14.902Z,15.02
2023-05-19T07:16:41.660Z,14.92
2023-05-19T07:19:09.401Z,14.39
2023-05-19T07:21:36.261Z,14.59
2023-05-19T07:24:02.997Z,15.26
2023-05-19T07:26:32.212Z,14.93
2023-05-19T07:28:58.990Z,15.80
2023-05-19T07:31:26.015Z,15.81
2023-05-19T07:33:54.600Z,15.69
2023-05-19T07:36:21.756Z,15.59
2023-05-19T07:38:48.422Z,16.42
2023-05-19T07:41:15.179Z,16.45
2023-05-19T07:43:42.546Z,16.89
2023-05-19T07:46:09.414Z,16.95
2023-05-19T07:48:37.439Z,16.64
2023-05-19T07:51:07.686Z,16.71
2023-05-19T07:53:34.414Z,16.69
2023-05-19T07:56:01.055Z,16.29
2023-05-19T07:58:27.790Z,16.05
2023-05-19T08:00:58.809Z,16.09
2023-05-19T08:03:26.678Z,16.45
2023-05-19T08:05:53.540Z,16.85
2023-05-19T08:08:20.304Z,16.44
2023-05-19T08:10:46.979Z,16.69
2023-05-19T08:13:13.662Z,16.74
2023-05-19T08:15:42.876Z,17.05
2023-05-19T08:18:09.788Z,17.04
2023-05-19T08:20:37.556Z,16.79
2023-05-19T08:23:04.342Z,17.29
2023-05-19T08:25:31.317Z,17.04
2023-05-19T08:27:58.166Z,17.77
2023-05-19T08:30:25.051Z,17.99
2023-05-19T08:32:51.897Z,18.03
2023-05-19T08:35:18.661Z,17.82
2023-05-19T08:37:45.361Z,18.12
2023-05-19T08:40:17.560Z,18.15
2023-05-19T08:42:47.838Z,18.29
2023-05-19T08:45:14.742Z,18.34
2023-05-19T08:47:42.455Z,18.26
2023-05-19T08:50:11.442Z,18.17
2023-05-19T08:52:57.852Z,18.36
2023-05-19T08:55:34.015Z,18.15
2023-05-19T08:58:03.725Z,18.19
2023-05-19T09:00:30.964Z,17.89
2023-05-19T09:03:10.804Z,17.83
2023-05-19T09:05:44.064Z,18.23
2023-05-19T09:08:11.257Z,18.55
2023-05-19T09:10:37.999Z,18.43
2023-05-19T09:13:05.624Z,18.60
2023-05-19T09:15:34.095Z,18.55
2023-05-19T09:18:06.725Z,18.82
2023-05-19T09:20:47.096Z,18.33
2023-05-19T09:23:17.055Z,18.46
2023-05-19T09:25:51.044Z,18.41
2023-05-19T09:28:31.176Z,17.90
2023-05-19T09:31:06.199Z,18.37
2023-05-19T09:33:35.056Z,18.52
2023-05-19T09:36:01.965Z,18.44
2023-05-19T09:38:31.789Z,18.30
2023-05-19T09:41:00.014Z,18.24
2023-05-19T09:43:30.976Z,18.28
2023-05-19T09:46:03.623Z,17.97
2023-05-19T09:48:30.545Z,17.67
2023-05-19T09:50:58.987Z,18.53
2023-05-19T09:53:25.981Z,18.86
2023-05-19T09:55:59.451Z,18.81
2023-05-19T09:58:26.602Z,18.29
2023-05-19T10:00:54.880Z,18.45
2023-05-19T10:03:26.299Z,18.21
2023-05-19T10:05:53.854Z,18.26
2023-05-19T10:08:22.726Z,18.21
2023-05-19T10:10:49.651Z,18.32
2023-05-19T10:13:16.765Z,18.56
2023-05-19T10:15:57.343Z,18.68
2023-05-19T10:18:26.599Z,18.91
2023-05-19T10:20:54.339Z,18.73
2023-05-19T10:23:22.282Z,18.68
2023-05-19T10:25:51.265Z,18.80
2023-05-19T10:28:21.132Z,19.18
2023-05-19T10:30:51.614Z,19.05
2023-05-19T10:33:21.142Z,19.14
2023-05-19T10:36:08.390Z,19.22
2023-05-19T10:38:37.293Z,19.40
2023-05-19T10:41:16.934Z,18.86
2023-05-19T10:44:05.460Z,19.07
2023-05-19T10:46:32.278Z,18.98
2023-05-19T10:48:59.534Z,19.22
2023-05-19T10:51:33.279Z,18.97
2023-05-19T10:54:08.817Z,18.96
2023-05-19T10:56:42.274Z,19.58
2023-05-19T10:59:33.018Z,19.62
2023-05-19T11:02:08.316Z,19.36
2023-05-19T11:04:51.079Z,19.38
2023-05-19T11:07:19.843Z,19.65
2023-05-19T11:09:52.972Z,19.76
2023-05-19T11:12:22.101Z,19.58
2023-05-19T11:14:49.081Z,19.34
2023-05-19T11:17:16.325Z,19.30
2023-05-19T11:19:54.618Z,19.23
2023-05-19T11:22:26.238Z,19.37
2023-05-19T11:24:55.991Z,19.57
2023-05-19T11:27:35.146Z,19.42
2023-05-19T11:30:14.817Z,18.93
2023-05-19T11:32:42.881Z,18.71
2023-05-19T11:35:14.600Z,19.14
2023-05-19T11:37:43.000Z,18.76
2023-05-19T11:40:10.939Z,19.07
2023-05-19T11:42:37.764Z,18.90
2023-05-19T11:45:05.320Z,19.05
2023-05-19T11:47:46.037Z,19.27
2023-05-19T11:50:20.305Z,19.49
2023-05-19T11:52:47.662Z,19.61
2023-05-19T11:55:24.186Z,19.62
2023-05-19T12:00:31.214Z,19.22
2023-05-19T12:02:58.265Z,19.50
2023-05-19T12:05:26.991Z,19.82
2023-05-19T12:07:54.276Z,19.97
2023-05-19T12:10:29.016Z,19.78
2023-05-19T12:12:57.208Z,19.66
2023-05-19T12:15:25.203Z,19.48
2023-05-19T12:17:57.678Z,19.39
2023-05-19T12:20:25.098Z,19.69
2023-05-19T12:22:52.941Z,19.85
2023-05-19T12:25:20.485Z,19.65
2023-05-19T12:27:49.524Z,19.72
2023-05-19T12:30:16.867Z,19.79
2023-05-19T12:32:43.990Z,19.90
2023-05-19T12:35:10.992Z,19.79
2023-05-19T12:37:43.670Z,19.62
2023-05-19T12:40:16.606Z,19.42
2023-05-19T12:42:46.703Z,19.47
2023-05-19T12:45:13.419Z,19.37
2023-05-19T12:47:40.244Z,19.31
2023-05-19T12:50:08.746Z,19.44
2023-05-19T12:52:45.790Z,19.56
2023-05-19T12:55:16.660Z,19.52
2023-05-19T12:57:48.723Z,19.43
2023-05-19T13:00:25.103Z,19.51
2023-05-19T13:02:56.218Z,18.84
2023-05-19T13:05:23.112Z,18.63
2023-05-19T13:08:04.662Z,18.89
2023-05-19T13:10:32.902Z,18.94
2023-05-19T13:13:00.535Z,19.24
2023-05-19T13:15:36.470Z,19.19
2023-05-19T13:18:04.548Z,18.92
2023-05-19T13:20:32.005Z,18.59
2023-05-19T13:22:59.547Z,18.94
2023-05-19T13:25:26.754Z,18.81
2023-05-19T13:27:59.322Z,18.63
2023-05-19T13:30:26.064Z,18.84
2023-05-19T13:32:52.840Z,18.96
2023-05-19T13:35:20.159Z,19.13
2023-05-19T13:37:46.884Z,18.70
2023-05-19T13:40:13.770Z,18.86
2023-05-19T13:42:40.818Z,18.53
2023-05-19T13:45:08.291Z,18.39
2023-05-19T13:47:35.214Z,18.17
2023-05-19T13:50:04.517Z,18.03
2023-05-19T13:52:31.448Z,18.18
2023-05-19T13:54:58.173Z,18.31
2023-05-19T13:57:26.320Z,18.53
2023-05-19T14:00:02.649Z,18.64
2023-05-19T14:02:39.523Z,18.77
2023-05-19T14:05:07.406Z,18.53
2023-05-19T14:07:37.109Z,18.77
2023-05-19T14:10:06.665Z,18.65
2023-05-19T14:12:49.306Z,18.65
2023-05-19T14:15:22.191Z,18.41
2023-05-19T14:17:49.237Z,18.69
2023-05-19T14:20:16.181Z,18.60
2023-05-19T14:22:42.935Z,18.59
2023-05-19T14:25:12.822Z,18.56
2023-05-19T14:27:42.381Z,18.83
2023-05-19T14:30:09.567Z,18.89
2023-05-19T14:32:36.367Z,18.69
2023-05-19T14:35:03.573Z,18.69
2023-05-19T14:37:31.882Z,18.98
2023-05-19T14:39:58.935Z,18.73
2023-05-19T14:42:25.622Z,18.68
2023-05-19T14:44:52.254Z,18.72
2023-05-19T14:47:18.986Z,18.82
2023-05-19T14:49:45.806Z,19.06
2023-05-19T14:52:12.447Z,19.07
2023-05-19T14:54:39.179Z,18.83
2023-05-19T14:57:07.289Z,18.68
2023-05-19T14:59:37.481Z,18.70
2023-05-19T15:02:05.272Z,18.66
2023-05-19T15:04:31.983Z,18.68
2023-05-19T15:09:32.346Z,18.56
2023-05-19T15:12:01.249Z,18.57
2023-05-19T15:14:30.270Z,18.38
2023-05-19T15:16:57.805Z,18.24
2023-05-19T15:19:24.811Z,18.15
2023-05-19T15:21:51.769Z,18.28
2023-05-19T15:24:19.164Z,18.21
2023-05-19T15:26:45.910Z,17.95
2023-05-19T15:29:12.548Z,17.77
2023-05-19T15:31:39.364Z,17.79
2023-05-19T15:34:06.263Z,17.60
2023-05-19T15:36:32.927Z,17.61
2023-05-19T15:38:59.574Z,17.63
2023-05-19T15:41:26.796Z,17.65
2023-05-19T15:43:53.697Z,17.62
2023-05-19T15:46:20.431Z,17.49
2023-05-19T15:48:47.179Z,17.61
2023-05-19T15:51:14.001Z,17.53
2023-05-19T15:53:40.653Z,17.56
2023-05-19T15:56:07.477Z,17.71
2023-05-19T15:58:34.107Z,17.72
2023-05-19T16:01:01.261Z,17.72
2023-05-19T16:03:28.021Z,17.66
2023-05-19T16:05:54.878Z,17.45
2023-05-19T16:08:21.536Z,17.55
2023-05-19T16:10:48.264Z,17.36
2023-05-19T16:13:15.072Z,17.47
2023-05-19T16:15:41.867Z,17.41
2023-05-19T16:18:08.661Z,17.26
2023-05-19T16:20:35.487Z,17.25
2023-05-19T16:23:03.170Z,17.11
2023-05-19T16:25:30.164Z,17.10
2023-05-19T16:27:57.058Z,17.11
2023-05-19T16:30:26.205Z,16.98
2023-05-19T16:32:55.675Z,17.04
2023-05-19T16:35:22.695Z,16.97
2023-05-19T16:37:49.609Z,17.01
2023-05-19T16:40:16.383Z,17.00
2023-05-19T16:42:43.081Z,17.11
2023-05-19T16:45:10.200Z,16.94
2023-05-19T16:47:36.990Z,16.82
2023-05-19T16:50:04.203Z,16.81
2023-05-19T16:52:30.920Z,16.82
2023-05-19T16:54:57.572Z,16.94
2023-05-19T16:57:24.275Z,16.96
2023-05-19T16:59:50.996Z,16.92
2023-05-19T17:02:17.724Z,16.71
2023-05-19T17:04:44.540Z,16.73
2023-05-19T17:07:17.554Z,16.78
2023-05-19T17:09:44.687Z,16.63
2023-05-19T17:12:11.336Z,16.61
2023-05-19T17:14:38.007Z,16.65
2023-05-19T17:17:04.859Z,16.51
2023-05-19T17:19:31.640Z,16.52
2023-05-19T17:21:58.411Z,16.42
2023-05-19T17:24:25.119Z,16.50
2023-05-19T17:26:52.435Z,16.33
2023-05-19T17:29:19.149Z,16.32
2023-05-19T17:31:45.949Z,16.26
2023-05-19T17:34:12.702Z,16.10
2023-05-19T17:36:39.366Z,16.14
2023-05-19T17:39:05.987Z,16.27
2023-05-19T17:41:32.718Z,16.14
2023-05-19T17:43:59.442Z,16.00
2023-05-19T17:46:26.381Z,16.09
2023-05-19T17:48:52.996Z,16.19
2023-05-19T17:51:19.862Z,16.17
2023-05-19T17:53:46.741Z,16.02
2023-05-19T17:56:14.191Z,16.02
2023-05-19T17:58:41.444Z,16.09
2023-05-19T18:01:08.726Z,16.29
2023-05-19T18:03:35.867Z,16.01
2023-05-19T18:06:02.960Z,15.95
2023-05-19T18:08:31.059Z,15.82
2023-05-19T18:10:58.200Z,15.95
2023-05-19T18:13:27.206Z,15.96
2023-05-19T18:15:53.992Z,15.88
2023-05-19T18:18:20.780Z,16.21
2023-05-19T18:20:48.196Z,15.76
2023-05-19T18:23:14.844Z,15.71
2023-05-19T18:25:41.524Z,15.65
2023-05-19T18:28:08.223Z,15.79
2023-05-19T18:30:35.504Z,15.85
2023-05-19T18:33:03.886Z,15.64
2023-05-19T18:35:31.006Z,15.71
2023-05-19T18:37:57.883Z,15.62
2023-05-19T18:40:24.683Z,15.63
2023-05-19T18:42:51.437Z,15.53
2023-05-19T18:45:18.215Z,15.35
2023-05-19T18:47:44.999Z,15.31
2023-05-19T18:50:11.683Z,15.27
2023-05-19T18:52:38.366Z,15.21
2023-05-19T18:55:05.572Z,15.32
2023-05-19T18:57:32.313Z,15.26
2023-05-19T18:59:58.987Z,15.13
2023-05-19T19:02:26.807Z,15.21
2023-05-19T19:04:53.586Z,15.16
2023-05-19T19:07:20.280Z,15.00
2023-05-19T19:09:46.965Z,14.97
2023-05-19T19:12:13.656Z,15.13
2023-05-19T19:14:40.356Z,15.18
2023-05-19T19:17:07.117Z,15.12
2023-05-19T19:19:33.878Z,15.05
2023-05-19T19:22:00.742Z,14.86
2023-05-19T19:24:28.478Z,14.84
2023-05-19T19:26:55.240Z,14.65
2023-05-19T19:29:22.035Z,14.98
2023-05-19T19:31:48.996Z,15.00
2023-05-19T19:34:15.917Z,14.71
2023-05-19T19:36:43.883Z,14.93
2023-05-19T19:39:10.617Z,14.85
2023-05-19T19:41:37.573Z,14.70
2023-05-19T19:44:04.433Z,14.72
2023-05-19T19:46:31.182Z,14.66
2023-05-19T19:49:00.723Z,14.59
2023-05-19T19:51:28.434Z,14.42
2023-05-19T19:53:55.191Z,14.58
2023-05-19T19:56:24.503Z,14.56
2023-05-19T19:58:51.239Z,14.41
2023-05-19T20:01:20.400Z,14.48
2023-05-19T20:03:48.022Z,14.34
2023-05-19T20:06:15.044Z,14.46
2023-05-19T20:08:41.819Z,14.38
2023-05-19T20:11:09.245Z,14.52
2023-05-19T20:13:35.932Z,14.13
2023-05-19T20:16:02.738Z,14.06
2023-05-19T20:18:29.934Z,14.24
2023-05-19T20:20:56.988Z,14.07
2023-05-19T20:23:23.817Z,14.13
2023-05-19T20:26:02.938Z,14.05
2023-05-19T20:28:36.518Z,14.12
2023-05-19T20:31:03.247Z,14.05
2023-05-19T20:33:29.926Z,14.21
2023-05-19T20:35:56.545Z,14.11
2023-05-19T20:38:23.206Z,14.08
2023-05-19T20:40:49.948Z,13.87
2023-05-19T20:43:19.678Z,13.92
2023-05-19T20:45:49.195Z,13.76
2023-05-19T20:48:16.119Z,13.90
2023-05-19T20:50:42.904Z,13.79
2023-05-19T20:53:09.646Z,13.77
2023-05-19T20:55:38.380Z,13.53
2023-05-19T20:58:05.393Z,13.61
2023-05-19T21:00:32.592Z,13.58
2023-05-19T21:02:59.710Z,13.52
2023-05-19T21:05:26.406Z,13.61
2023-05-19T21:07:54.851Z,13.42
2023-05-19T21:10:21.583Z,13.38
2023-05-19T21:12:48.210Z,13.32
2023-05-19T21:15:14.906Z,13.22
2023-05-19T21:17:41.573Z,13.42
2023-05-19T21:20:08.943Z,13.12
2023-05-19T21:22:35.959Z,13.17
2023-05-19T21:25:02.722Z,13.14
2023-05-19T21:27:29.894Z,13.29
2023-05-19T21:29:56.552Z,13.19
2023-05-19T21:32:23.224Z,13.10
2023-05-19T21:34:49.930Z,13.02
2023-05-19T21:37:17.634Z,13.13
2023-05-19T21:39:44.779Z,13.11
2023-05-19T21:42:11.505Z,13.08
2023-05-19T21:44:38.213Z,12.97
2023-05-19T21:47:04.944Z,12.99
2023-05-19T21:49:31.676Z,12.99
2023-05-19T21:51:58.590Z,12.82
2023-05-19T21:54:25.382Z,12.69
2023-05-19T21:56:54.485Z,12.81
2023-05-19T21:59:23.242Z,13.05
2023-05-19T22:01:50.438Z,13.02
2023-05-19T22:04:18.487Z,12.75
2023-05-19T22:06:45.512Z,12.63
2023-05-19T22:09:12.849Z,12.87
2023-05-19T22:11:39.881Z,12.72
2023-05-19T22:14:06.940Z,12.73
2023-05-19T22:16:34.109Z,12.78
2023-05-19T22:19:00.987Z,12.71
2023-05-19T22:21:27.916Z,12.90
2023-05-19T22:23:54.648Z,12.56
2023-05-19T22:26:22.038Z,12.49
2023-05-19T22:28:50.011Z,12.71
2023-05-19T22:31:16.768Z,12.57
2023-05-19T22:33:43.544Z,12.56
2023-05-19T22:36:11.069Z,12.41
2023-05-19T22:38:37.979Z,12.37
2023-05-19T22:41:04.804Z,12.38
2023-05-19T22:43:31.507Z,12.60
2023-05-19T22:45:58.242Z,12.25
2023-05-19T22:48:24.930Z,12.35
2023-05-19T22:50:51.608Z,12.14
2023-05-19T22:53:18.258Z,12.18
2023-05-19T22:55:47.502Z,12.28
2023-05-19T22:58:14.250Z,12.29
2023-05-19T23:00:40.970Z,12.24
2023-05-19T23:03:07.749Z,12.25
2023-05-19T23:05:34.749Z,12.26
2023-05-19T23:08:01.792Z,12.18
2023-05-19T23:10:28.465Z,12.15
2023-05-19T23:12:55.229Z,12.11
2023-05-19T23:15:24.086Z,12.04
2023-05-19T23:17:50.887Z,12.06
2023-05-19T23:20:17.618Z,12.04
2023-05-19T23:22:44.354Z,12.00
2023-05-19T23:25:11.203Z,12.07
2023-05-19T23:27:38.006Z,12.02
2023-05-19T23:30:05.258Z,11.93
2023-05-19T23:32:32.186Z,11.82
2023-05-19T23:35:12.573Z,11.79
2023-05-19T23:37:39.363Z,11.68
2023-05-19T23:40:08.106Z,11.85
2023-05-19T23:42:35.381Z,11.89
2023-05-19T23:45:02.613Z,11.87
2023-05-19T23:47:29.306Z,11.81
2023-05-19T23:49:56.127Z,11.92
2023-05-19T23:52:22.815Z,11.89
2023-05-19T23:54:49.591Z,11.68
2023-05-19T23:57:16.447Z,11.80
2023-05-19T23:59:43.164Z,11.78
